createdAt,value
2018-07-14T00:01:07.917Z,7.90
2018-07-14T00:05:11.258Z,7.53
2018-07-14T00:09:14.611Z,7.60
2018-07-14T00:13:17.966Z,7.67
2018-07-14T00:17:21.371Z,8.07
2018-07-14T00:21:24.751Z,7.33
2018-07-14T00:25:33.431Z,8.20
2018-07-14T00:29:36.871Z,7.70
2018-07-14T00:33:40.201Z,7.77
2018-07-14T00:37:43.568Z,7.77
2018-07-14T00:41:47.057Z,7.23
2018-07-14T00:45:50.386Z,8.70
2018-07-14T00:49:53.723Z,7.43
2018-07-14T00:53:57.076Z,7.90
2018-07-14T00:58:00.416Z,7.23
2018-07-14T01:02:03.795Z,7.43
2018-07-14T01:06:07.134Z,8.17
2018-07-14T01:10:10.498Z,8.67
2018-07-14T01:14:13.827Z,9.13
2018-07-14T01:18:17.250Z,8.93
2018-07-14T01:22:20.587Z,9.17
2018-07-14T01:26:23.909Z,9.20
2018-07-14T01:30:27.242Z,9.00
2018-07-14T01:34:30.599Z,9.07
2018-07-14T01:38:33.926Z,7.67
2018-07-14T01:42:37.242Z,7.40
2018-07-14T01:46:40.564Z,9.27
2018-07-14T01:50:43.894Z,8.67
2018-07-14T01:54:47.223Z,9.37
2018-07-14T01:58:50.547Z,8.20
2018-07-14T02:02:53.903Z,8.60
2018-07-14T02:06:57.208Z,7.93
2018-07-14T02:11:00.597Z,8.07
2018-07-14T02:15:04.518Z,8.17
2018-07-14T02:19:07.881Z,10.00
2018-07-14T02:23:11.220Z,10.17
2018-07-14T02:27:14.585Z,9.73
2018-07-14T02:31:18.068Z,10.47
2018-07-14T02:35:21.391Z,10.27
2018-07-14T02:39:24.715Z,10.40
2018-07-14T02:43:28.054Z,10.57
2018-07-14T02:47:31.467Z,10.63
2018-07-14T02:51:35.169Z,9.23
2018-07-14T02:55:38.529Z,9.77
2018-07-14T02:59:41.929Z,10.10
2018-07-14T03:03:45.273Z,9.63
2018-07-14T03:07:48.620Z,9.93
2018-07-14T03:11:52.189Z,10.17
2018-07-14T03:15:56.375Z,11.80
2018-07-14T03:19:59.716Z,9.83
2018-07-14T03:24:03.051Z,10.97
2018-07-14T03:28:06.547Z,9.53
2018-07-14T03:32:10.267Z,10.10
2018-07-14T03:36:13.598Z,10.43
2018-07-14T03:40:16.939Z,11.23
2018-07-14T03:44:20.314Z,9.30
2018-07-14T03:48:23.731Z,10.40
2018-07-14T03:52:27.068Z,10.53
2018-07-14T03:56:30.406Z,11.53
2018-07-14T04:00:33.863Z,11.03
2018-07-14T04:04:37.199Z,11.20
2018-07-14T04:08:40.751Z,12.03
2018-07-14T04:12:44.075Z,10.97
2018-07-14T04:16:47.455Z,11.10
2018-07-14T04:20:50.916Z,10.70
2018-07-14T04:24:54.239Z,11.60
2018-07-14T04:28:57.568Z,12.70
2018-07-14T04:33:00.884Z,13.70
2018-07-14T04:37:04.227Z,12.83
2018-07-14T06:04:40.721Z,7.13
2018-07-14T06:08:44.045Z,7.00
2018-07-14T06:12:47.218Z,8.10
2018-07-14T06:16:50.611Z,6.70
2018-07-14T06:20:54.046Z,7.40
2018-07-14T06:24:57.398Z,8.77
2018-07-14T06:29:00.708Z,8.60
2018-07-14T06:33:22.973Z,8.37
2018-07-14T06:37:26.604Z,9.23
2018-07-14T06:41:30.023Z,8.73
2018-07-14T06:45:33.375Z,7.63
2018-07-14T06:49:36.785Z,8.03
2018-07-14T06:53:40.141Z,8.33
2018-07-14T06:57:43.490Z,7.73
2018-07-14T07:01:46.863Z,7.43
2018-07-14T07:05:50.188Z,6.53
2018-07-14T07:09:53.507Z,5.90
2018-07-14T07:13:56.880Z,5.50
2018-07-14T07:18:00.236Z,5.30
2018-07-14T07:22:04.246Z,5.17
2018-07-14T07:26:07.620Z,5.27
2018-07-14T07:30:10.708Z,5.10
2018-07-14T07:34:14.044Z,5.30
2018-07-14T07:38:17.477Z,4.80
2018-07-14T07:42:20.874Z,5.63
2018-07-14T07:46:24.162Z,5.03
2018-07-14T07:50:27.511Z,7.60
2018-07-14T07:54:30.851Z,5.90
2018-07-14T07:58:34.292Z,5.80
2018-07-14T08:02:37.640Z,5.80
2018-07-14T08:06:40.970Z,6.30
2018-07-14T08:10:44.379Z,5.10
2018-07-14T08:14:47.777Z,5.73
2018-07-14T08:18:51.130Z,5.30
2018-07-14T08:22:54.543Z,5.80
2018-07-14T08:26:57.844Z,5.70
2018-07-14T08:31:01.294Z,5.70
2018-07-14T08:35:04.792Z,6.40
2018-07-14T08:39:08.579Z,5.90
2018-07-14T08:43:11.936Z,7.47
2018-07-14T08:47:15.264Z,7.37
2018-07-14T08:51:18.857Z,7.20
2018-07-14T08:55:22.272Z,7.30
2018-07-14T08:59:25.666Z,6.97
2018-07-14T09:03:29.035Z,9.43
2018-07-14T09:07:32.396Z,8.97
2018-07-14T09:11:35.730Z,8.47
2018-07-14T09:15:39.066Z,8.23
2018-07-14T09:19:42.408Z,7.87
2018-07-14T09:23:45.754Z,9.47
2018-07-14T09:27:49.134Z,9.63
2018-07-14T09:31:52.639Z,8.97
2018-07-14T09:35:56.119Z,9.97
2018-07-14T09:39:59.512Z,9.73
2018-07-14T09:44:02.943Z,9.63
2018-07-14T09:48:06.238Z,10.43
2018-07-14T09:52:09.587Z,10.97
2018-07-14T09:56:12.899Z,10.53
2018-07-14T10:00:22.289Z,11.80
2018-07-14T10:04:25.638Z,11.13
2018-07-14T10:08:29.004Z,10.37
2018-07-14T10:12:32.336Z,10.47
2018-07-14T10:16:35.702Z,10.90
2018-07-14T10:20:39.042Z,11.53
2018-07-14T10:24:42.435Z,10.93
2018-07-14T10:28:45.823Z,12.47
2018-07-14T10:32:49.159Z,10.80
2018-07-14T10:36:52.611Z,10.83
2018-07-14T10:40:55.987Z,12.17
2018-07-14T10:44:59.375Z,11.87
2018-07-14T10:49:02.731Z,11.93
2018-07-14T10:53:06.128Z,12.90
2018-07-14T10:57:09.456Z,12.03
2018-07-14T11:01:12.848Z,10.77
2018-07-14T11:05:16.206Z,10.97
2018-07-14T11:09:19.660Z,9.60
2018-07-14T11:13:23.003Z,9.03
2018-07-14T11:17:26.364Z,7.50
2018-07-14T11:21:29.807Z,7.00
2018-07-14T11:25:33.139Z,8.63
2018-07-14T11:29:36.487Z,8.90
2018-07-14T11:33:39.821Z,8.57
2018-07-14T11:37:43.191Z,7.13
2018-07-14T11:41:46.491Z,6.63
2018-07-14T11:45:49.956Z,5.90
2018-07-14T11:49:53.957Z,5.53
2018-07-14T11:53:57.299Z,6.20
2018-07-14T11:58:00.643Z,6.40
2018-07-14T12:02:04.035Z,5.93
2018-07-14T12:06:07.331Z,6.70
2018-07-14T12:10:10.703Z,6.00
2018-07-14T12:14:14.048Z,5.83
2018-07-14T12:18:17.392Z,6.30
2018-07-14T12:22:20.754Z,5.10
2018-07-14T12:26:24.108Z,5.30
2018-07-14T12:30:27.524Z,5.80
2018-07-14T12:34:30.815Z,5.43
2018-07-14T12:38:34.130Z,5.20
2018-07-14T12:42:37.483Z,5.77
2018-07-14T12:46:40.903Z,5.60
2018-07-14T12:50:44.273Z,5.57
2018-07-14T12:54:47.611Z,5.83
2018-07-14T12:58:51.310Z,5.27
2018-07-14T13:02:54.631Z,5.70
2018-07-14T13:06:57.726Z,5.90
2018-07-14T13:11:01.146Z,5.73
2018-07-14T13:15:04.722Z,6.03
2018-07-14T13:19:08.087Z,4.60
2018-07-14T13:23:11.471Z,5.30
2018-07-14T13:27:14.824Z,5.47
2018-07-14T13:31:18.248Z,5.30
2018-07-14T13:35:21.558Z,5.40
2018-07-14T13:39:24.635Z,4.50
2018-07-14T13:43:27.988Z,4.57
2018-07-14T13:47:31.355Z,4.80
2018-07-14T13:51:34.734Z,4.10
2018-07-14T13:55:38.212Z,4.53
2018-07-14T13:59:41.640Z,4.13
2018-07-14T14:03:44.976Z,3.73
2018-07-14T14:07:49.117Z,4.80
2018-07-14T14:11:52.471Z,4.10
2018-07-14T14:15:55.885Z,3.67
2018-07-14T14:19:59.939Z,3.97
2018-07-14T14:24:03.006Z,3.93
2018-07-14T14:28:06.451Z,3.83
2018-07-14T14:32:09.838Z,3.83
2018-07-14T14:36:13.143Z,3.77
2018-07-14T14:40:16.576Z,3.47
2018-07-14T14:44:19.913Z,3.50
2018-07-14T14:48:23.258Z,3.90
2018-07-14T14:52:26.589Z,3.20
2018-07-14T14:56:29.906Z,3.10
2018-07-14T15:00:33.240Z,3.20
2018-07-14T15:04:36.581Z,3.30
2018-07-14T15:08:40.580Z,2.90
2018-07-14T15:12:43.915Z,2.70
2018-07-14T15:16:47.342Z,2.63
2018-07-14T15:20:50.734Z,2.40
2018-07-14T15:24:54.058Z,2.73
2018-07-14T15:28:57.396Z,3.03
2018-07-14T15:33:00.870Z,2.80
2018-07-14T15:37:04.139Z,2.87
2018-07-14T15:41:07.915Z,2.57
2018-07-14T15:45:12.566Z,2.60
2018-07-14T15:49:16.226Z,2.70
2018-07-14T15:53:19.540Z,2.60
2018-07-14T15:57:23.046Z,2.60
2018-07-14T16:01:26.464Z,2.90
2018-07-14T16:05:30.442Z,2.50
2018-07-14T16:09:33.858Z,2.70
2018-07-14T16:13:37.290Z,2.50
2018-07-14T16:17:40.639Z,2.53
2018-07-14T16:21:44.119Z,2.33
2018-07-14T16:25:47.532Z,2.53
2018-07-14T16:29:51.040Z,2.80
2018-07-14T16:33:54.395Z,2.45
2018-07-14T16:37:57.731Z,2.60
2018-07-14T16:42:01.103Z,2.22
2018-07-14T16:46:04.702Z,2.90
2018-07-14T16:50:08.114Z,2.83
2018-07-14T16:54:13.706Z,2.73
2018-07-14T16:58:17.150Z,2.40
2018-07-14T17:02:20.499Z,2.70
2018-07-14T17:06:23.852Z,3.10
2018-07-14T17:10:27.178Z,2.60
2018-07-14T17:14:30.548Z,2.63
2018-07-14T17:18:33.943Z,3.00
2018-07-14T17:22:37.292Z,2.77
2018-07-14T17:26:40.681Z,2.30
2018-07-14T17:30:44.231Z,2.70
2018-07-14T17:34:47.594Z,2.90
2018-07-14T17:38:51.894Z,2.63
2018-07-14T17:42:55.253Z,3.00
2018-07-14T17:46:58.600Z,2.57
2018-07-14T17:51:02.202Z,2.60
2018-07-14T17:55:05.627Z,2.70
2018-07-14T17:59:08.993Z,2.30
2018-07-14T18:03:12.338Z,2.63
2018-07-14T18:07:15.768Z,2.40
2018-07-14T18:11:19.079Z,2.30
2018-07-14T18:15:22.536Z,2.70
2018-07-14T18:19:25.866Z,2.20
2018-07-14T18:23:29.253Z,2.50
2018-07-14T18:27:32.611Z,2.60
2018-07-14T18:31:35.940Z,2.60
2018-07-14T18:35:39.319Z,2.07
2018-07-14T18:39:43.081Z,2.00
2018-07-14T18:43:46.358Z,2.40
2018-07-14T18:47:49.770Z,2.10
2018-07-14T18:51:53.163Z,1.90
2018-07-14T18:55:56.510Z,2.20
2018-07-14T18:59:59.887Z,2.30
2018-07-14T19:04:03.294Z,2.10
2018-07-14T19:08:07.253Z,2.20
2018-07-14T19:12:10.639Z,2.50
2018-07-14T19:16:14.147Z,2.60
2018-07-14T19:20:17.515Z,2.40
2018-07-14T19:24:20.868Z,2.40
2018-07-14T19:28:24.228Z,2.20
2018-07-14T19:32:27.853Z,2.30
2018-07-14T19:36:32.462Z,2.40
2018-07-14T19:40:36.654Z,2.50
2018-07-14T19:44:40.733Z,2.20
2018-07-14T19:48:44.060Z,2.30
2018-07-14T19:52:47.106Z,2.50
2018-07-14T19:56:50.454Z,2.70
2018-07-14T20:00:53.915Z,2.40
2018-07-14T20:04:57.262Z,2.47
2018-07-14T20:09:00.611Z,2.50
2018-07-14T20:13:03.947Z,3.20
2018-07-14T20:17:07.305Z,2.87
2018-07-14T20:21:10.662Z,2.57
2018-07-14T20:25:14.030Z,2.90
2018-07-14T20:29:17.429Z,3.77
2018-07-14T20:33:20.783Z,3.58
2018-07-14T20:37:24.358Z,3.37
2018-07-14T20:41:27.821Z,3.00
2018-07-14T20:45:31.173Z,3.03
2018-07-14T20:49:34.517Z,2.43
2018-07-14T20:53:37.872Z,2.30
2018-07-14T20:57:42.052Z,2.67
2018-07-14T21:01:46.547Z,2.70
2018-07-14T21:05:49.879Z,2.97
2018-07-14T21:09:53.748Z,2.73
2018-07-14T21:13:57.211Z,3.20
2018-07-14T21:18:00.571Z,3.73
2018-07-14T21:22:04.178Z,3.90
2018-07-14T21:26:07.853Z,3.77
2018-07-14T21:30:11.211Z,3.80
2018-07-14T21:34:15.358Z,3.73
2018-07-14T21:38:18.884Z,2.97
2018-07-14T21:42:22.264Z,3.10
2018-07-14T21:46:25.976Z,3.27
2018-07-14T21:50:29.331Z,3.30
2018-07-14T21:54:32.743Z,3.80
2018-07-14T21:58:36.096Z,3.10
2018-07-14T22:02:39.451Z,3.07
2018-07-14T22:06:42.793Z,2.83
2018-07-14T22:10:46.298Z,2.93
2018-07-14T22:14:49.683Z,2.87
2018-07-14T22:18:53.001Z,2.73
2018-07-14T22:22:56.365Z,3.43
2018-07-14T22:26:59.690Z,3.30
2018-07-14T22:31:03.059Z,3.40
2018-07-14T22:35:06.619Z,2.90
2018-07-14T22:39:09.940Z,3.10
2018-07-14T22:43:13.339Z,3.10
2018-07-14T22:47:16.777Z,3.37
2018-07-14T22:51:20.148Z,2.90
2018-07-14T22:55:23.467Z,2.97
2018-07-14T22:59:26.887Z,3.20
2018-07-14T23:03:30.207Z,3.07
2018-07-14T23:07:33.935Z,2.90
2018-07-14T23:11:37.295Z,2.80
2018-07-14T23:15:40.671Z,2.90
2018-07-14T23:19:43.988Z,3.13
2018-07-14T23:23:47.088Z,3.20
2018-07-14T23:27:50.448Z,3.00
2018-07-14T23:31:53.951Z,2.97
2018-07-14T23:35:57.303Z,2.93
2018-07-14T23:40:00.636Z,3.13
2018-07-14T23:44:03.995Z,3.07
2018-07-14T23:48:07.332Z,3.17
2018-07-14T23:52:10.720Z,3.27
2018-07-14T23:56:14.104Z,2.97
